RUK165 EGHQ-EIDW
Flight info
| Callsign | RUK165 |
|---|---|
| Flight time | 0h 40m |
| Altitude | 33000 |
| Route | GISOK DCT NICXI M17 VATRY VATRY3R |
| Aircraft | B738/M-SDE2E3FGHIRWXY/LB1 |
Departure
| Time | 2026-05-09 19:41 |
|---|---|
| Airport | Cornwall Airport Newquay (EGHQ) |
Arrival
| Time | 2026-05-09 20:22 |
|---|---|
| Airport | Dublin Airport (EIDW) |
| Time | Latitude | Longitude | Altitude | Speed | Heading |
|---|---|---|---|---|---|
| 2026-05-09 18:59 | 50.44622 | -5.00302 | 398 ft | 0 kts | 78° |
| 2026-05-09 19:02 | 50.44621 | -5.00302 | 398 ft | 0 kts | 78° |
| 2026-05-09 19:33 | 50.44620 | -5.00312 | 398 ft | 2 kts | 77° |
| 2026-05-09 19:33 | 50.44617 | -5.00335 | 398 ft | 2 kts | 77° |
| 2026-05-09 19:33 | 50.44613 | -5.00358 | 398 ft | 2 kts | 77° |
| 2026-05-09 19:34 | 50.44610 | -5.00380 | 398 ft | 2 kts | 77° |
| 2026-05-09 19:34 | 50.44608 | -5.00404 | 398 ft | 2 kts | 101° |
| 2026-05-09 19:34 | 50.44611 | -5.00418 | 398 ft | 0 kts | 118° |
| 2026-05-09 19:34 | 50.44614 | -5.00428 | 398 ft | 0 kts | 121° |
| 2026-05-09 19:35 | 50.44614 | -5.00427 | 398 ft | 0 kts | 121° |
| 2026-05-09 19:36 | 50.44614 | -5.00426 | 398 ft | 1 kts | 120° |
| 2026-05-09 19:36 | 50.44571 | -5.00307 | 398 ft | 21 kts | 119° |
| 2026-05-09 19:37 | 50.44488 | -5.00085 | 398 ft | 25 kts | 120° |
| 2026-05-09 19:37 | 50.44398 | -4.99845 | 398 ft | 25 kts | 121° |
| 2026-05-09 19:37 | 50.44309 | -4.99608 | 398 ft | 25 kts | 119° |
| 2026-05-09 19:37 | 50.44221 | -4.99373 | 398 ft | 25 kts | 121° |
| 2026-05-09 19:38 | 50.44133 | -4.99136 | 398 ft | 25 kts | 118° |
| 2026-05-09 19:38 | 50.44044 | -4.98903 | 398 ft | 24 kts | 121° |
| 2026-05-09 19:38 | 50.43957 | -4.98669 | 398 ft | 24 kts | 119° |
| 2026-05-09 19:38 | 50.43869 | -4.98435 | 398 ft | 24 kts | 120° |
| 2026-05-09 19:39 | 50.43780 | -4.98206 | 398 ft | 24 kts | 120° |
| 2026-05-09 19:39 | 50.43689 | -4.97973 | 398 ft | 24 kts | 124° |
| 2026-05-09 19:39 | 50.43582 | -4.97857 | 398 ft | 4 kts | 168° |
| 2026-05-09 19:39 | 50.43577 | -4.97855 | 398 ft | 0 kts | 169° |
| 2026-05-09 19:40 | 50.43544 | -4.97851 | 398 ft | 11 kts | 180° |
| 2026-05-09 19:40 | 50.43470 | -4.97891 | 398 ft | 11 kts | 240° |
| 2026-05-09 19:40 | 50.43498 | -4.98003 | 398 ft | 13 kts | 304° |
| 2026-05-09 19:41 | 50.43627 | -4.98337 | 398 ft | 74 kts | 304° |
| 2026-05-09 19:41 | 50.44022 | -4.99395 | 398 ft | 148 kts | 301° |
| 2026-05-09 19:41 | 50.44544 | -5.00983 | 831 ft | 173 kts | 300° |
| 2026-05-09 19:41 | 50.45244 | -5.02458 | 1717 ft | 169 kts | 330° |
| 2026-05-09 19:42 | 50.46353 | -5.03151 | 2184 ft | 183 kts | 355° |
| 2026-05-09 19:42 | 50.47614 | -5.03127 | 2781 ft | 187 kts | 23° |
| 2026-05-09 19:42 | 50.48809 | -5.02295 | 3492 ft | 194 kts | 25° |
| 2026-05-09 19:42 | 50.50140 | -5.01779 | 4247 ft | 205 kts | 9° |
| 2026-05-09 19:43 | 50.51620 | -5.01713 | 4844 ft | 222 kts | 4° |
| 2026-05-09 19:43 | 50.53196 | -5.01775 | 5419 ft | 237 kts | 2° |
| 2026-05-09 19:43 | 50.54903 | -5.01844 | 5998 ft | 253 kts | 2° |
| 2026-05-09 19:43 | 50.56675 | -5.01897 | 6692 ft | 263 kts | 2° |
| 2026-05-09 19:44 | 50.58517 | -5.01945 | 7507 ft | 269 kts | 2° |
| 2026-05-09 19:44 | 50.60405 | -5.01992 | 8308 ft | 275 kts | 2° |
| 2026-05-09 19:44 | 50.62313 | -5.02038 | 9143 ft | 278 kts | 2° |
| 2026-05-09 19:44 | 50.64265 | -5.02084 | 9928 ft | 284 kts | 2° |
| 2026-05-09 19:45 | 50.66256 | -5.02131 | 10601 ft | 293 kts | 2° |
| 2026-05-09 19:45 | 50.68357 | -5.02178 | 11071 ft | 310 kts | 1° |
| 2026-05-09 19:45 | 50.70566 | -5.02231 | 11539 ft | 327 kts | 1° |
| 2026-05-09 19:45 | 50.72870 | -5.02289 | 11977 ft | 344 kts | 1° |
| 2026-05-09 19:46 | 50.75312 | -5.02350 | 12420 ft | 360 kts | 0° |
| 2026-05-09 19:46 | 50.77839 | -5.02414 | 13086 ft | 369 kts | 0° |
| 2026-05-09 19:46 | 50.80435 | -5.02480 | 13808 ft | 376 kts | 0° |
| 2026-05-09 19:46 | 50.83067 | -5.02546 | 14580 ft | 382 kts | 360° |
| 2026-05-09 19:47 | 50.85756 | -5.02611 | 15394 ft | 388 kts | 0° |
| 2026-05-09 19:47 | 50.88457 | -5.02677 | 16210 ft | 393 kts | 360° |
| 2026-05-09 19:47 | 50.91163 | -5.02743 | 16996 ft | 397 kts | 360° |
| 2026-05-09 19:47 | 50.93933 | -5.02811 | 17742 ft | 403 kts | 359° |
| 2026-05-09 19:48 | 50.96744 | -5.02880 | 18512 ft | 407 kts | 359° |
| 2026-05-09 19:48 | 50.99603 | -5.02950 | 19025 ft | 413 kts | 359° |
| 2026-05-09 19:48 | 51.02451 | -5.03021 | 19090 ft | 414 kts | 359° |
| 2026-05-09 19:48 | 51.05312 | -5.03092 | 19096 ft | 410 kts | 359° |
| 2026-05-09 19:49 | 51.08173 | -5.03163 | 19099 ft | 411 kts | 359° |
| 2026-05-09 19:49 | 51.11042 | -5.03233 | 19104 ft | 411 kts | 359° |
| 2026-05-09 19:49 | 51.13885 | -5.03303 | 19100 ft | 410 kts | 359° |
| 2026-05-09 19:49 | 51.16701 | -5.03373 | 19098 ft | 404 kts | 359° |
| 2026-05-09 19:50 | 51.19513 | -5.03443 | 19096 ft | 404 kts | 359° |
| 2026-05-09 19:50 | 51.22303 | -5.03512 | 19127 ft | 410 kts | 359° |
| 2026-05-09 19:50 | 51.25211 | -5.03584 | 19107 ft | 413 kts | 359° |
| 2026-05-09 19:50 | 51.28049 | -5.03655 | 19114 ft | 403 kts | 359° |
| 2026-05-09 19:51 | 51.30819 | -5.03724 | 19116 ft | 404 kts | 359° |
| 2026-05-09 19:51 | 51.33672 | -5.03797 | 19610 ft | 414 kts | 359° |
| 2026-05-09 19:51 | 51.36520 | -5.03869 | 20509 ft | 413 kts | 359° |
| 2026-05-09 19:51 | 51.39436 | -5.03942 | 21272 ft | 417 kts | 359° |
| 2026-05-09 19:52 | 51.42312 | -5.04013 | 21924 ft | 422 kts | 359° |
| 2026-05-09 19:52 | 51.45263 | -5.04086 | 22622 ft | 425 kts | 359° |
| 2026-05-09 19:52 | 51.48240 | -5.04161 | 23251 ft | 430 kts | 358° |
| 2026-05-09 19:52 | 51.51215 | -5.04235 | 23903 ft | 434 kts | 358° |
| 2026-05-09 19:53 | 51.54259 | -5.04311 | 24508 ft | 438 kts | 358° |
| 2026-05-09 19:53 | 51.57293 | -5.04387 | 25090 ft | 443 kts | 358° |
| 2026-05-09 19:53 | 51.60416 | -5.04466 | 25637 ft | 448 kts | 358° |
| 2026-05-09 19:53 | 51.63503 | -5.04544 | 26280 ft | 450 kts | 358° |
| 2026-05-09 19:54 | 51.66632 | -5.04622 | 27116 ft | 447 kts | 358° |
| 2026-05-09 19:54 | 51.69706 | -5.04699 | 27897 ft | 445 kts | 358° |
| 2026-05-09 19:54 | 51.72804 | -5.04779 | 28694 ft | 442 kts | 358° |
| 2026-05-09 19:54 | 51.75858 | -5.04857 | 29486 ft | 438 kts | 357° |
| 2026-05-09 19:55 | 51.78895 | -5.04933 | 30106 ft | 439 kts | 357° |
| 2026-05-09 19:55 | 51.81959 | -5.05010 | 30591 ft | 441 kts | 357° |
| 2026-05-09 19:55 | 51.85017 | -5.05087 | 31115 ft | 442 kts | 357° |
| 2026-05-09 19:56 | 51.91180 | -5.05241 | 32354 ft | 435 kts | 357° |
| 2026-05-09 19:56 | 51.94226 | -5.05316 | 32911 ft | 432 kts | 358° |
| 2026-05-09 19:56 | 51.97202 | -5.05479 | 33435 ft | 429 kts | 355° |
| 2026-05-09 19:56 | 52.00141 | -5.06004 | 33908 ft | 425 kts | 349° |
| 2026-05-09 19:57 | 52.03086 | -5.07081 | 34310 ft | 422 kts | 342° |
| 2026-05-09 19:57 | 52.05886 | -5.08687 | 34698 ft | 419 kts | 336° |
| 2026-05-09 19:57 | 52.08590 | -5.10717 | 35032 ft | 417 kts | 333° |
| 2026-05-09 19:58 | 52.13903 | -5.15262 | 34994 ft | 435 kts | 331° |
| 2026-05-09 19:58 | 52.19348 | -5.19983 | 34992 ft | 450 kts | 332° |
| 2026-05-09 19:59 | 52.24918 | -5.24681 | 34993 ft | 448 kts | 332° |
| 2026-05-09 19:59 | 52.30512 | -5.29323 | 34998 ft | 449 kts | 332° |
| 2026-05-09 19:59 | 52.33285 | -5.31614 | 34824 ft | 445 kts | 332° |
| 2026-05-09 20:00 | 52.36066 | -5.33910 | 34250 ft | 447 kts | 332° |
| 2026-05-09 20:00 | 52.38850 | -5.36210 | 33500 ft | 452 kts | 332° |
| 2026-05-09 20:00 | 52.41650 | -5.38525 | 32705 ft | 455 kts | 331° |
| 2026-05-09 20:00 | 52.44462 | -5.40853 | 31935 ft | 456 kts | 331° |
| 2026-05-09 20:01 | 52.47296 | -5.43202 | 31147 ft | 458 kts | 331° |
| 2026-05-09 20:01 | 52.50139 | -5.45561 | 30235 ft | 459 kts | 331° |
| 2026-05-09 20:01 | 52.52982 | -5.47837 | 29290 ft | 462 kts | 333° |
| 2026-05-09 20:01 | 52.55942 | -5.49890 | 28700 ft | 456 kts | 336° |
| 2026-05-09 20:02 | 52.58904 | -5.51690 | 28023 ft | 453 kts | 338° |
| 2026-05-09 20:02 | 52.61849 | -5.53327 | 27416 ft | 447 kts | 340° |
| 2026-05-09 20:02 | 52.64790 | -5.54880 | 26702 ft | 445 kts | 340° |
| 2026-05-09 20:03 | 52.70640 | -5.57873 | 25378 ft | 437 kts | 340° |
| 2026-05-09 20:03 | 52.73513 | -5.59336 | 24689 ft | 435 kts | 340° |
| 2026-05-09 20:03 | 52.76414 | -5.60815 | 24118 ft | 429 kts | 340° |
| 2026-05-09 20:03 | 52.79236 | -5.62258 | 23493 ft | 425 kts | 340° |
| 2026-05-09 20:04 | 52.82036 | -5.63694 | 22896 ft | 420 kts | 340° |
| 2026-05-09 20:04 | 52.84782 | -5.65109 | 22299 ft | 416 kts | 339° |
| 2026-05-09 20:04 | 52.87533 | -5.66531 | 21711 ft | 411 kts | 339° |
| 2026-05-09 20:04 | 52.90228 | -5.67927 | 21128 ft | 407 kts | 339° |
| 2026-05-09 20:05 | 52.92929 | -5.69330 | 20533 ft | 402 kts | 339° |
| 2026-05-09 20:05 | 52.95546 | -5.70692 | 19950 ft | 398 kts | 339° |
| 2026-05-09 20:05 | 52.98169 | -5.72058 | 19373 ft | 394 kts | 339° |
| 2026-05-09 20:05 | 53.00778 | -5.73420 | 18733 ft | 391 kts | 339° |
| 2026-05-09 20:06 | 53.03346 | -5.74765 | 18109 ft | 388 kts | 339° |
| 2026-05-09 20:06 | 53.05894 | -5.76101 | 17485 ft | 385 kts | 339° |
| 2026-05-09 20:06 | 53.08455 | -5.77447 | 16849 ft | 381 kts | 340° |
| 2026-05-09 20:06 | 53.10916 | -5.79004 | 16217 ft | 376 kts | 332° |
| 2026-05-09 20:07 | 53.13050 | -5.81324 | 15590 ft | 369 kts | 316° |
| 2026-05-09 20:07 | 53.14671 | -5.84609 | 14959 ft | 364 kts | 300° |
| 2026-05-09 20:07 | 53.15783 | -5.88315 | 14340 ft | 360 kts | 294° |
| 2026-05-09 20:07 | 53.16777 | -5.92109 | 13672 ft | 353 kts | 293° |
| 2026-05-09 20:08 | 53.17705 | -5.95747 | 13051 ft | 338 kts | 293° |
| 2026-05-09 20:08 | 53.19472 | -6.02685 | 11754 ft | 314 kts | 294° |
| 2026-05-09 20:08 | 53.20317 | -6.05971 | 11087 ft | 305 kts | 294° |
| 2026-05-09 20:09 | 53.21142 | -6.09161 | 10474 ft | 298 kts | 294° |
| 2026-05-09 20:09 | 53.21944 | -6.12259 | 10014 ft | 286 kts | 294° |
| 2026-05-09 20:09 | 53.22709 | -6.15218 | 9954 ft | 271 kts | 294° |
| 2026-05-09 20:09 | 53.23443 | -6.18057 | 9671 ft | 266 kts | 295° |
| 2026-05-09 20:10 | 53.24176 | -6.20897 | 9321 ft | 265 kts | 295° |
| 2026-05-09 20:10 | 53.24902 | -6.23712 | 8969 ft | 263 kts | 295° |
| 2026-05-09 20:10 | 53.25618 | -6.26500 | 8623 ft | 262 kts | 295° |
| 2026-05-09 20:10 | 53.26334 | -6.29295 | 8276 ft | 261 kts | 295° |
| 2026-05-09 20:11 | 53.27049 | -6.32083 | 7929 ft | 260 kts | 295° |
| 2026-05-09 20:11 | 53.27754 | -6.34840 | 7590 ft | 258 kts | 295° |
| 2026-05-09 20:11 | 53.28451 | -6.37571 | 7379 ft | 252 kts | 295° |
| 2026-05-09 20:11 | 53.29122 | -6.40208 | 7301 ft | 241 kts | 295° |
| 2026-05-09 20:12 | 53.29776 | -6.42776 | 7179 ft | 239 kts | 296° |
| 2026-05-09 20:12 | 53.30437 | -6.45362 | 6921 ft | 243 kts | 296° |
| 2026-05-09 20:12 | 53.31095 | -6.47951 | 6663 ft | 240 kts | 296° |
| 2026-05-09 20:12 | 53.31749 | -6.50528 | 6414 ft | 240 kts | 296° |
| 2026-05-09 20:13 | 53.32400 | -6.53093 | 6162 ft | 239 kts | 296° |
| 2026-05-09 20:13 | 53.33050 | -6.55655 | 5908 ft | 239 kts | 297° |
| 2026-05-09 20:13 | 53.33691 | -6.58186 | 5658 ft | 238 kts | 297° |
| 2026-05-09 20:13 | 53.34331 | -6.60726 | 5405 ft | 237 kts | 297° |
| 2026-05-09 20:14 | 53.34969 | -6.63254 | 5256 ft | 234 kts | 297° |
| 2026-05-09 20:14 | 53.35613 | -6.65771 | 5036 ft | 236 kts | 299° |
| 2026-05-09 20:14 | 53.36447 | -6.68051 | 4975 ft | 219 kts | 318° |
| 2026-05-09 20:14 | 53.37683 | -6.69268 | 4994 ft | 201 kts | 353° |
| 2026-05-09 20:15 | 53.39061 | -6.69243 | 5004 ft | 198 kts | 10° |
| 2026-05-09 20:15 | 53.40428 | -6.68949 | 4991 ft | 198 kts | 7° |
| 2026-05-09 20:15 | 53.41799 | -6.68743 | 4995 ft | 198 kts | 6° |
| 2026-05-09 20:15 | 53.43175 | -6.68542 | 4994 ft | 198 kts | 9° |
| 2026-05-09 20:16 | 53.44490 | -6.67927 | 4982 ft | 197 kts | 32° |
| 2026-05-09 20:16 | 53.45421 | -6.66288 | 4807 ft | 202 kts | 60° |
| 2026-05-09 20:16 | 53.45792 | -6.63967 | 4421 ft | 214 kts | 85° |
| 2026-05-09 20:16 | 53.45586 | -6.61464 | 4215 ft | 214 kts | 96° |
| 2026-05-09 20:17 | 53.45344 | -6.59040 | 4004 ft | 211 kts | 91° |
| 2026-05-09 20:17 | 53.45223 | -6.56618 | 3723 ft | 209 kts | 88° |
| 2026-05-09 20:17 | 53.45119 | -6.54206 | 3440 ft | 205 kts | 89° |
| 2026-05-09 20:17 | 53.44994 | -6.51847 | 3117 ft | 201 kts | 89° |
| 2026-05-09 20:18 | 53.44869 | -6.49531 | 2838 ft | 196 kts | 88° |
| 2026-05-09 20:18 | 53.44751 | -6.47286 | 2544 ft | 191 kts | 88° |
| 2026-05-09 20:18 | 53.44635 | -6.45128 | 2335 ft | 182 kts | 88° |
| 2026-05-09 20:18 | 53.44524 | -6.43034 | 2065 ft | 173 kts | 87° |
| 2026-05-09 20:19 | 53.44421 | -6.41140 | 1803 ft | 159 kts | 86° |
| 2026-05-09 20:19 | 53.44326 | -6.39384 | 1649 ft | 140 kts | 86° |
| 2026-05-09 20:19 | 53.44243 | -6.37771 | 1411 ft | 135 kts | 86° |
| 2026-05-09 20:19 | 53.44160 | -6.36231 | 1245 ft | 133 kts | 87° |
| 2026-05-09 20:20 | 53.44076 | -6.34654 | 1069 ft | 136 kts | 88° |
| 2026-05-09 20:20 | 53.43994 | -6.33073 | 869 ft | 138 kts | 89° |
| 2026-05-09 20:20 | 53.43905 | -6.31470 | 669 ft | 138 kts | 91° |
| 2026-05-09 20:20 | 53.43821 | -6.29878 | 459 ft | 137 kts | 90° |
| 2026-05-09 20:21 | 53.43732 | -6.28304 | 292 ft | 134 kts | 92° |
| 2026-05-09 20:21 | 53.43656 | -6.26844 | 229 ft | 103 kts | 97° |
| 2026-05-09 20:21 | 53.43628 | -6.26002 | 218 ft | 50 kts | 98° |
| 2026-05-09 20:21 | 53.43569 | -6.25397 | 211 ft | 58 kts | 107° |
| 2026-05-09 20:22 | 53.43426 | -6.25024 | 210 ft | 10 kts | 196° |
| 2026-05-09 20:22 | 53.43396 | -6.25114 | 210 ft | 20 kts | 255° |
| 2026-05-09 20:22 | 53.43406 | -6.25470 | 212 ft | 33 kts | 275° |
| 2026-05-09 20:22 | 53.43314 | -6.25617 | 213 ft | 23 kts | 158° |
| 2026-05-09 20:23 | 53.43159 | -6.25516 | 212 ft | 23 kts | 132° |
| 2026-05-09 20:23 | 53.43069 | -6.25329 | 211 ft | 22 kts | 157° |
| 2026-05-09 20:23 | 53.43026 | -6.25190 | 210 ft | 0 kts | 73° |